Time;durP1;ratioP1;P1;durP2;ratioP2;P2;SDS_P1;SDS_P2;PMS_P1;PMS_P2;Temp;Humidity;BMP_temperature;BMP_pressure;BME280_temperature;BME280_humidity;BME280_pressure;Samples;Min_cycle;Max_cycle;Signal;HPM_P1;HPM_P2
2023/02/16 00:00:28;;;;;;;;;74.50;56.25;;;;;;;;5045571;28;13663;-74
2023/02/16 00:02:54;;;;;;;;;74.75;61.00;;;;;;;;5044837;28;14197;-71
2023/02/16 00:05:23;;;;;;;;;72.00;58.33;;;;;;;;5050613;28;9015;-71
2023/02/16 00:07:49;;;;;;;;;67.00;56.00;;;;;;;;5053218;28;8810;-71
2023/02/16 00:10:14;;;;;;;;;76.33;59.00;;;;;;;;5049257;28;13555;-71
2023/02/16 00:15:23;;;;;;;;;71.00;56.67;;;;;;;;5052737;28;8777;-71
2023/02/16 00:17:48;;;;;;;;;68.33;56.33;;;;;;;;5052772;28;8910;-71
2023/02/16 00:20:17;;;;;;;;;71.00;54.33;;;;;;;;5052886;28;8782;-71
2023/02/16 00:22:42;;;;;;;;;66.67;55.33;;;;;;;;5051121;28;9528;-71
2023/02/16 00:25:07;;;;;;;;;67.33;53.00;;;;;;;;5052564;28;8811;-71
2023/02/16 00:27:33;;;;;;;;;75.00;56.33;;;;;;;;5052729;28;8874;-71
2023/02/16 00:29:59;;;;;;;;;66.67;56.00;;;;;;;;5052784;28;8808;-71
2023/02/16 00:32:24;;;;;;;;;71.67;57.33;;;;;;;;5052571;28;8870;-71
2023/02/16 00:34:49;;;;;;;;;81.00;63.67;;;;;;;;5046938;28;13619;-71
2023/02/16 00:37:14;;;;;;;;;85.67;65.00;;;;;;;;5048367;28;13566;-71
2023/02/16 00:39:40;;;;;;;;;74.67;58.00;;;;;;;;5052558;28;8824;-71
2023/02/16 00:42:10;;;;;;;;;68.33;57.67;;;;;;;;5052499;28;8816;-71
2023/02/16 00:44:40;;;;;;;;;75.75;60.50;;;;;;;;5047047;28;14376;-72
2023/02/16 00:47:22;;;;;;;;;83.50;66.00;;;;;;;;5046868;28;13806;-71
2023/02/16 00:49:48;;;;;;;;;85.75;65.00;;;;;;;;5046839;28;13594;-72
2023/02/16 00:52:32;;;;;;;;;90.20;67.00;;;;;;;;5047991;28;13619;-71
2023/02/16 00:54:58;;;;;;;;;80.00;62.25;;;;;;;;5052012;28;8793;-72
2023/02/16 00:57:24;;;;;;;;;84.00;62.80;;;;;;;;5047642;28;13616;-72
2023/02/16 00:59:54;;;;;;;;;71.00;57.33;;;;;;;;5050266;28;9554;-72
2023/02/16 01:02:19;;;;;;;;;82.75;63.50;;;;;;;;5048321;28;13548;-70
2023/02/16 01:04:44;;;;;;;;;79.33;63.00;;;;;;;;5051778;28;8800;-70
2023/02/16 01:12:38;;;;;;;;;80.75;62.00;;;;;;;;5048073;28;13571;-71
2023/02/16 01:15:05;;;;;;;;;76.00;58.25;;;;;;;;5047721;28;13608;-70
2023/02/16 01:17:30;;;;;;;;;71.00;58.00;;;;;;;;5051333;28;8803;-70
2023/02/16 01:19:55;;;;;;;;;86.00;66.50;;;;;;;;5047427;28;14292;-70
2023/02/16 01:22:21;;;;;;;;;84.75;65.25;;;;;;;;5051770;28;8809;-70
2023/02/16 01:24:46;;;;;;;;;78.00;63.25;;;;;;;;5051282;28;8809;-71
2023/02/16 01:27:12;;;;;;;;;74.75;59.50;;;;;;;;5050124;28;9672;-71
2023/02/16 01:29:38;;;;;;;;;86.25;67.00;;;;;;;;5047133;28;13582;-71
2023/02/16 01:32:03;;;;;;;;;91.67;66.67;;;;;;;;5046989;28;13597;-71
2023/02/16 01:34:28;;;;;;;;;77.25;62.75;;;;;;;;5051241;28;8886;-71
2023/02/16 01:36:53;;;;;;;;;84.50;64.75;;;;;;;;5051200;28;8880;-70
2023/02/16 01:39:19;;;;;;;;;79.25;64.25;;;;;;;;5051166;28;9555;-70
2023/02/16 01:42:00;;;;;;;;;79.75;63.50;;;;;;;;5051198;28;8792;-70
2023/02/16 01:44:40;;;;;;;;;89.00;66.50;;;;;;;;5046619;28;14434;-71
2023/02/16 01:47:24;;;;;;;;;87.75;70.50;;;;;;;;5048214;28;13614;-70
2023/02/16 01:49:49;;;;;;;;;87.50;66.75;;;;;;;;5047389;28;13687;-72
2023/02/16 01:52:26;;;;;;;;;89.50;71.75;;;;;;;;5050963;28;8912;-70
2023/02/16 01:54:51;;;;;;;;;89.75;72.00;;;;;;;;5051169;28;8801;-70
2023/02/16 01:57:31;;;;;;;;;96.67;77.33;;;;;;;;5047027;28;13645;-71
2023/02/16 01:59:57;;;;;;;;;93.50;71.75;;;;;;;;5050782;28;8823;-70
2023/02/16 02:02:24;;;;;;;;;91.50;71.50;;;;;;;;5050689;28;8912;-71
2023/02/16 02:07:40;;;;;;;;;102.00;81.50;;;;;;;;5046783;28;13848;-69
2023/02/16 02:10:13;;;;;;;;;105.75;79.00;;;;;;;;5050841;28;8903;-70
2023/02/16 02:12:38;;;;;;;;;111.75;96.75;;;;;;;;5046508;28;13659;-69
2023/02/16 02:15:04;;;;;;;;;120.50;99.75;;;;;;;;5046141;28;13618;-69
2023/02/16 02:17:30;;;;;;;;;112.50;88.75;;;;;;;;5050879;28;8804;-70
2023/02/16 02:19:58;;;;;;;;;110.00;90.50;;;;;;;;5046899;28;13586;-70
2023/02/16 02:25:39;;;;;;;;;110.60;97.80;;;;;;;;5046377;28;13600;-70
2023/02/16 02:28:09;;;;;;;;;105.00;96.50;;;;;;;;5045717;28;13660;-71
2023/02/16 02:30:51;;;;;;;;;113.60;96.80;;;;;;;;5046163;28;13613;-70
2023/02/16 02:33:24;;;;;;;;;106.25;80.25;;;;;;;;5050329;28;8955;-70
2023/02/16 02:36:13;;;;;;;;;106.00;93.25;;;;;;;;5045015;28;13729;-70
2023/02/16 02:38:38;;;;;;;;;117.25;101.00;;;;;;;;5046692;28;13659;-70
2023/02/16 02:41:11;;;;;;;;;102.33;86.33;;;;;;;;5046506;28;13660;-69
2023/02/16 02:43:51;;;;;;;;;105.50;86.50;;;;;;;;5049943;28;8954;-70
2023/02/16 02:46:23;;;;;;;;;109.00;87.75;;;;;;;;5078770;28;13737;-70
2023/02/16 02:48:48;;;;;;;;;118.50;106.00;;;;;;;;5046121;28;13769;-70
2023/02/16 02:51:29;;;;;;;;;105.00;83.25;;;;;;;;5049854;28;11639;-71
2023/02/16 03:02:57;;;;;;;;;108.75;94.00;;;;;;;;5045969;28;13629;-70
2023/02/16 03:05:24;;;;;;;;;114.00;97.25;;;;;;;;5046072;28;14358;-70
2023/02/16 03:07:52;;;;;;;;;105.00;82.00;;;;;;;;5050307;28;8882;-70
2023/02/16 03:13:05;;;;;;;;;107.75;95.25;;;;;;;;5045406;28;13646;-70
2023/02/16 03:15:31;;;;;;;;;104.00;87.50;;;;;;;;5046044;28;13650;-70
2023/02/16 03:31:39;;;;;;;;;107.75;84.50;;;;;;;;5049427;28;8801;-69
2023/02/16 03:34:04;;;;;;;;;101.50;85.00;;;;;;;;5049433;28;9628;-69
2023/02/16 03:36:31;;;;;;;;;101.75;83.75;;;;;;;;5049443;28;8779;-69
2023/02/16 03:38:57;;;;;;;;;98.25;79.50;;;;;;;;5049127;28;8807;-70
2023/02/16 03:41:24;;;;;;;;;100.25;83.75;;;;;;;;5049226;28;8809;-69
2023/02/16 03:43:49;;;;;;;;;100.00;79.00;;;;;;;;5047561;28;8982;-70
2023/02/16 03:46:14;;;;;;;;;103.25;82.00;;;;;;;;5049169;28;8888;-70
2023/02/16 03:48:40;;;;;;;;;103.00;84.25;;;;;;;;5051227;28;8840;-70
2023/02/16 03:51:05;;;;;;;;;103.25;80.75;;;;;;;;5047977;28;8805;-70
2023/02/16 03:53:30;;;;;;;;;103.00;85.25;;;;;;;;5047870;28;8832;-70
2023/02/16 03:55:56;;;;;;;;;98.00;73.00;;;;;;;;5047905;28;8825;-69
2023/02/16 03:58:22;;;;;;;;;99.50;79.00;;;;;;;;5047862;28;8833;-71
2023/02/16 04:00:47;;;;;;;;;104.75;83.25;;;;;;;;5047819;28;8797;-70
2023/02/16 04:03:13;;;;;;;;;105.00;81.00;;;;;;;;5048360;28;8922;-70
2023/02/16 04:05:38;;;;;;;;;105.50;82.50;;;;;;;;5047995;28;8859;-70
2023/02/16 04:08:04;;;;;;;;;106.50;85.25;;;;;;;;5047823;28;8797;-70
2023/02/16 04:10:30;;;;;;;;;105.00;89.50;;;;;;;;5047856;28;8827;-71
2023/02/16 04:12:55;;;;;;;;;101.50;82.50;;;;;;;;5047667;28;8797;-70
2023/02/16 04:15:25;;;;;;;;;102.75;85.50;;;;;;;;5047537;28;9015;-70
2023/02/16 04:17:50;;;;;;;;;103.00;82.25;;;;;;;;5046465;28;8845;-70
2023/02/16 04:20:20;;;;;;;;;104.50;84.50;;;;;;;;5047627;28;8840;-70
2023/02/16 04:22:46;;;;;;;;;101.25;75.00;;;;;;;;5047691;28;8928;-70
2023/02/16 04:25:12;;;;;;;;;101.75;80.25;;;;;;;;5047525;28;9081;-71
2023/02/16 04:27:37;;;;;;;;;107.50;86.50;;;;;;;;5047440;28;8833;-70
2023/02/16 04:30:04;;;;;;;;;97.50;74.25;;;;;;;;5047294;28;8855;-70
2023/02/16 04:32:29;;;;;;;;;102.25;82.25;;;;;;;;5047453;28;8793;-70
2023/02/16 04:34:54;;;;;;;;;105.00;86.00;;;;;;;;5047808;28;8841;-70
2023/02/16 04:37:20;;;;;;;;;98.50;77.00;;;;;;;;5047242;28;8913;-69
2023/02/16 04:39:45;;;;;;;;;106.00;84.75;;;;;;;;5048789;28;8886;-70
2023/02/16 04:42:11;;;;;;;;;106.00;87.00;;;;;;;;5048728;28;8813;-69
2023/02/16 04:44:36;;;;;;;;;114.00;90.00;;;;;;;;5047970;28;8841;-70
2023/02/16 04:47:01;;;;;;;;;106.50;84.00;;;;;;;;5048718;28;8874;-69
2023/02/16 04:49:26;;;;;;;;;101.75;74.50;;;;;;;;5048713;28;8789;-70
2023/02/16 04:51:52;;;;;;;;;104.25;85.75;;;;;;;;5051097;28;8813;-69
2023/02/16 04:54:17;;;;;;;;;102.00;79.25;;;;;;;;5051078;28;8793;-70
2023/02/16 04:56:43;;;;;;;;;101.75;79.00;;;;;;;;5052290;28;8937;-69
2023/02/16 04:59:09;;;;;;;;;102.50;80.00;;;;;;;;5052036;28;8897;-69
2023/02/16 05:01:34;;;;;;;;;101.00;79.75;;;;;;;;5052251;28;9046;-70
2023/02/16 05:04:00;;;;;;;;;106.75;82.50;;;;;;;;5051793;28;8856;-69
2023/02/16 05:06:25;;;;;;;;;104.25;81.75;;;;;;;;5052237;28;8821;-69
2023/02/16 05:08:50;;;;;;;;;98.75;73.75;;;;;;;;5052081;28;9585;-69
2023/02/16 05:16:44;;;;;;;;;102.25;79.50;;;;;;;;5052036;28;8781;-70
2023/02/16 05:19:09;;;;;;;;;95.75;73.75;;;;;;;;5052000;28;8820;-70
2023/02/16 05:21:35;;;;;;;;;91.75;71.00;;;;;;;;5050537;28;8856;-69
2023/02/16 05:24:02;;;;;;;;;108.25;83.75;;;;;;;;5051771;28;8955;-69
2023/02/16 05:26:28;;;;;;;;;105.50;83.50;;;;;;;;5051706;28;8820;-69
2023/02/16 05:28:53;;;;;;;;;102.50;74.75;;;;;;;;5051656;28;8801;-69
2023/02/16 05:31:19;;;;;;;;;103.00;72.25;;;;;;;;5051604;28;8907;-70
2023/02/16 05:33:44;;;;;;;;;102.00;76.00;;;;;;;;5051464;28;8893;-69
2023/02/16 05:36:09;;;;;;;;;107.50;82.50;;;;;;;;5050115;28;8821;-70
2023/02/16 05:38:34;;;;;;;;;104.25;78.75;;;;;;;;5051388;28;8805;-69
2023/02/16 05:41:00;;;;;;;;;105.50;79.00;;;;;;;;5050978;28;8801;-70
2023/02/16 05:43:25;;;;;;;;;102.50;83.25;;;;;;;;5050619;28;8859;-70
2023/02/16 05:45:51;;;;;;;;;101.50;75.25;;;;;;;;5051215;28;8839;-70
2023/02/16 05:48:16;;;;;;;;;100.50;73.50;;;;;;;;5051119;28;8813;-70
2023/02/16 05:50:41;;;;;;;;;97.75;74.25;;;;;;;;5051056;28;8839;-70
2023/02/16 05:53:06;;;;;;;;;97.25;73.50;;;;;;;;5051047;28;8805;-70
2023/02/16 05:55:32;;;;;;;;;101.75;77.00;;;;;;;;5050844;28;8821;-69
2023/02/16 05:57:57;;;;;;;;;96.50;75.50;;;;;;;;5051189;28;8797;-69
2023/02/16 06:00:22;;;;;;;;;104.00;79.00;;;;;;;;5050604;28;8797;-69
2023/02/16 06:02:48;;;;;;;;;98.75;77.75;;;;;;;;5049214;28;8813;-70
2023/02/16 06:05:13;;;;;;;;;102.00;77.75;;;;;;;;5049659;28;9092;-69
2023/02/16 06:07:39;;;;;;;;;99.50;80.00;;;;;;;;5049389;28;8809;-69
2023/02/16 06:10:04;;;;;;;;;106.75;84.50;;;;;;;;5050561;28;8912;-70
2023/02/16 06:12:31;;;;;;;;;100.50;78.00;;;;;;;;5050586;28;8918;-70
2023/02/16 06:14:56;;;;;;;;;40.25;18.25;;;;;;;;5050523;28;8816;-70
2023/02/16 06:17:21;;;;;;;;;104.25;80.00;;;;;;;;5050321;28;8850;-71
2023/02/16 06:19:47;;;;;;;;;103.25;79.00;;;;;;;;5050494;28;8828;-69
2023/02/16 06:22:12;;;;;;;;;96.50;77.25;;;;;;;;5051140;28;8931;-70
2023/02/16 06:24:37;;;;;;;;;101.00;77.75;;;;;;;;5050333;28;8863;-68
2023/02/16 06:27:03;;;;;;;;;95.50;72.50;;;;;;;;5050375;28;8790;-69
2023/02/16 06:29:28;;;;;;;;;91.00;71.50;;;;;;;;5050019;28;8813;-71
2023/02/16 06:31:53;;;;;;;;;102.50;82.25;;;;;;;;5050142;28;8835;-69
2023/02/16 06:34:18;;;;;;;;;99.25;77.50;;;;;;;;5050102;28;8869;-71
2023/02/16 06:36:44;;;;;;;;;97.00;74.00;;;;;;;;5049883;28;8832;-69
2023/02/16 06:39:09;;;;;;;;;101.50;79.00;;;;;;;;5049648;28;8813;-70
2023/02/16 06:41:38;;;;;;;;;94.50;72.50;;;;;;;;5043837;28;8829;-68
2023/02/16 06:44:08;;;;;;;;;103.50;81.50;;;;;;;;5036662;28;8823;-67
2023/02/16 06:46:34;;;;;;;;;102.00;80.50;;;;;;;;5030396;28;8796;-68
2023/02/16 06:48:59;;;;;;;;;94.00;72.00;;;;;;;;5030357;28;8799;-69
2023/02/16 06:51:25;;;;;;;;;102.50;83.00;;;;;;;;5030212;28;8836;-68
2023/02/16 06:53:50;;;;;;;;;97.75;71.75;;;;;;;;5029836;28;8834;-69
2023/02/16 06:56:15;;;;;;;;;95.75;70.75;;;;;;;;5029673;28;8796;-67
2023/02/16 06:58:40;;;;;;;;;101.50;78.00;;;;;;;;5029726;28;8811;-68
2023/02/16 07:01:06;;;;;;;;;95.50;72.25;;;;;;;;5029620;28;8784;-75
2023/02/16 07:03:31;;;;;;;;;93.25;73.50;;;;;;;;5028278;28;8898;-66
2023/02/16 07:05:56;;;;;;;;;100.25;78.00;;;;;;;;5029631;28;8893;-68
2023/02/16 07:08:22;;;;;;;;;99.50;75.25;;;;;;;;5029355;28;8953;-67
2023/02/16 07:10:47;;;;;;;;;98.75;77.75;;;;;;;;5029524;28;8815;-68
2023/02/16 07:13:12;;;;;;;;;90.75;73.50;;;;;;;;5028921;28;8812;-73
2023/02/16 07:15:38;;;;;;;;;97.75;75.50;;;;;;;;5052278;28;8929;-72
2023/02/16 07:18:03;;;;;;;;;98.75;79.25;;;;;;;;5060690;28;8829;-73
2023/02/16 07:20:28;;;;;;;;;102.25;77.75;;;;;;;;5054443;28;8809;-71
2023/02/16 07:22:54;;;;;;;;;97.00;71.50;;;;;;;;5047764;28;8823;-70
2023/02/16 07:25:19;;;;;;;;;98.25;72.00;;;;;;;;5049463;28;8832;-71
2023/02/16 07:27:45;;;;;;;;;93.75;71.00;;;;;;;;5049165;28;9538;-69
2023/02/16 07:30:10;;;;;;;;;93.50;72.00;;;;;;;;5055724;28;8843;-70
2023/02/16 07:32:36;;;;;;;;;96.50;72.00;;;;;;;;5069105;28;8952;-71
2023/02/16 22:06:12;;;;;;;;;90.50;70.00;;;;;;;;4914330;27;13667;-69
2023/02/16 22:08:37;;;;;;;;;84.00;66.00;;;;;;;;4983070;28;11982;-70
2023/02/16 22:11:04;;;;;;;;;85.25;64.75;;;;;;;;5026428;28;8947;-70
2023/02/16 22:13:29;;;;;;;;;92.75;70.00;;;;;;;;5026624;28;8794;-71
2023/02/16 22:15:54;;;;;;;;;90.50;70.50;;;;;;;;5026275;28;8936;-69
2023/02/16 22:18:20;;;;;;;;;89.75;69.25;;;;;;;;5021566;28;8956;-71
2023/02/16 22:20:45;;;;;;;;;92.50;69.75;;;;;;;;5027980;28;8860;-70
2023/02/16 22:23:11;;;;;;;;;87.50;67.50;;;;;;;;5025210;28;8837;-70
2023/02/16 22:25:38;;;;;;;;;88.50;68.25;;;;;;;;5026718;28;8830;-72
2023/02/16 22:28:03;;;;;;;;;90.75;70.50;;;;;;;;5027093;28;9520;-71
2023/02/16 22:30:28;;;;;;;;;92.75;69.00;;;;;;;;5026794;28;9005;-71
2023/02/16 22:32:54;;;;;;;;;89.00;68.00;;;;;;;;5026685;28;8802;-73
2023/02/16 22:35:19;;;;;;;;;91.00;71.50;;;;;;;;5026525;28;8950;-73
2023/02/16 22:37:44;;;;;;;;;92.25;71.00;;;;;;;;5026362;28;8799;-72
2023/02/16 22:40:10;;;;;;;;;88.50;69.75;;;;;;;;5026410;28;8767;-73
2023/02/16 22:42:35;;;;;;;;;84.75;68.75;;;;;;;;5026626;28;8794;-73
2023/02/16 22:45:00;;;;;;;;;93.00;72.00;;;;;;;;5026542;28;8810;-73
2023/02/16 22:47:26;;;;;;;;;84.00;69.00;;;;;;;;5026505;28;8825;-72
2023/02/16 22:49:51;;;;;;;;;88.00;70.75;;;;;;;;5026329;28;8901;-73
2023/02/16 22:52:16;;;;;;;;;87.25;68.00;;;;;;;;5026287;28;9509;-72
2023/02/16 22:54:41;;;;;;;;;87.75;69.00;;;;;;;;5026379;28;8841;-73
2023/02/16 22:57:07;;;;;;;;;88.50;68.25;;;;;;;;5026306;28;9641;-72
2023/02/16 22:59:32;;;;;;;;;85.75;68.75;;;;;;;;5024870;28;8815;-72
2023/02/16 23:01:58;;;;;;;;;82.50;64.00;;;;;;;;5026217;28;9541;-72
2023/02/16 23:04:23;;;;;;;;;97.75;71.00;;;;;;;;5025898;28;8873;-73
2023/02/16 23:06:48;;;;;;;;;85.00;66.25;;;;;;;;5025887;28;8795;-73
2023/02/16 23:09:15;;;;;;;;;89.50;67.75;;;;;;;;5025907;28;8782;-72
2023/02/16 23:11:40;;;;;;;;;84.25;68.50;;;;;;;;5026013;28;8868;-73
2023/02/16 23:14:14;;;;;;;;;82.00;65.00;;;;;;;;5025933;28;8810;-72
2023/02/16 23:16:40;;;;;;;;;85.75;67.50;;;;;;;;5017642;28;8937;-72
2023/02/16 23:19:05;;;;;;;;;85.00;66.25;;;;;;;;5012689;28;8786;-71
2023/02/16 23:21:31;;;;;;;;;83.00;64.25;;;;;;;;5012510;28;8901;-72
2023/02/16 23:23:57;;;;;;;;;79.25;65.00;;;;;;;;5012876;28;8790;-72
2023/02/16 23:26:23;;;;;;;;;88.75;67.75;;;;;;;;5012647;28;8818;-72
2023/02/16 23:28:50;;;;;;;;;90.00;69.75;;;;;;;;5012646;28;8912;-72
2023/02/16 23:31:16;;;;;;;;;91.00;71.00;;;;;;;;5012700;28;8833;-71
2023/02/16 23:33:41;;;;;;;;;86.50;70.00;;;;;;;;5012474;28;8806;-73
2023/02/16 23:36:07;;;;;;;;;88.75;68.50;;;;;;;;5012277;28;8911;-72
2023/02/16 23:38:32;;;;;;;;;95.50;72.00;;;;;;;;5012114;28;8830;-73
2023/02/16 23:40:59;;;;;;;;;88.25;69.25;;;;;;;;5011998;28;9627;-73
2023/02/16 23:43:25;;;;;;;;;99.75;74.50;;;;;;;;5011808;28;8961;-72
2023/02/16 23:45:50;;;;;;;;;93.50;74.25;;;;;;;;5011803;28;9565;-73
2023/02/16 23:48:15;;;;;;;;;89.75;70.00;;;;;;;;5011977;28;8797;-72
2023/02/16 23:50:41;;;;;;;;;97.00;71.25;;;;;;;;5011508;28;8825;-73
2023/02/16 23:53:06;;;;;;;;;96.25;72.75;;;;;;;;5011813;28;8853;-72
2023/02/16 23:55:31;;;;;;;;;90.75;71.75;;;;;;;;5011665;28;8802;-72
2023/02/16 23:57:56;;;;;;;;;90.25;73.00;;;;;;;;5011777;28;8901;-73
